createdAt,value
2022-09-17T00:00:18.823Z,1.92
2022-09-17T00:02:55.828Z,1.55
2022-09-17T00:05:28.771Z,1.40
2022-09-17T00:08:03.434Z,1.20
2022-09-17T00:10:40.519Z,1.48
2022-09-17T00:13:13.403Z,1.23
2022-09-17T00:15:48.159Z,1.10
2022-09-17T00:18:20.970Z,1.50
2022-09-17T00:20:53.826Z,0.95
2022-09-17T00:23:28.492Z,1.00
2022-09-17T00:26:05.502Z,1.00
2022-09-17T00:28:38.561Z,1.00
2022-09-17T00:31:12.195Z,1.00
2022-09-17T00:33:45.541Z,1.05
2022-09-17T00:36:20.634Z,1.00
2022-09-17T00:38:56.314Z,1.08
2022-09-17T00:41:30.879Z,0.80
2022-09-17T00:44:44.600Z,1.10
2022-09-17T00:47:22.650Z,1.08
2022-09-17T00:49:59.523Z,1.00
2022-09-17T00:52:37.108Z,0.77
2022-09-17T00:55:21.277Z,0.95
2022-09-17T00:57:58.091Z,0.90
2022-09-17T01:00:32.158Z,0.90
2022-09-17T01:03:05.460Z,1.17
2022-09-17T01:05:43.975Z,0.90
2022-09-17T01:08:26.555Z,0.80
2022-09-17T01:11:25.620Z,1.00
2022-09-17T01:14:11.543Z,1.15
2022-09-17T01:16:53.782Z,0.82
2022-09-17T01:20:06.285Z,0.75
2022-09-17T01:22:55.340Z,0.85
2022-09-17T01:25:39.707Z,0.90
2022-09-17T01:28:42.865Z,0.88
2022-09-17T01:31:30.776Z,1.02
2022-09-17T01:34:14.465Z,0.90
2022-09-17T01:37:00.463Z,0.95
2022-09-17T01:39:42.973Z,1.00
2022-09-17T01:42:20.003Z,0.90
2022-09-17T01:45:03.092Z,0.90
2022-09-17T01:47:39.912Z,0.98
2022-09-17T01:50:18.027Z,0.98
2022-09-17T01:52:54.794Z,0.88
2022-09-17T01:55:33.063Z,0.82
2022-09-17T01:58:18.610Z,1.10
2022-09-17T02:01:00.734Z,0.80
2022-09-17T02:03:42.488Z,0.90
2022-09-17T02:06:21.038Z,0.82
2022-09-17T02:08:58.469Z,1.13
2022-09-17T02:11:34.238Z,1.10
2022-09-17T02:14:11.394Z,1.25
2022-09-17T02:16:49.387Z,0.98
2022-09-17T02:19:28.371Z,1.10
2022-09-17T02:22:04.972Z,0.80
2022-09-17T02:24:47.692Z,1.00
2022-09-17T02:27:25.113Z,0.80
2022-09-17T02:29:57.917Z,0.93
2022-09-17T02:32:30.905Z,0.90
2022-09-17T02:35:06.526Z,1.13
2022-09-17T02:37:39.429Z,1.20
2022-09-17T02:40:15.314Z,1.00
2022-09-17T02:43:04.917Z,0.80
2022-09-17T02:45:51.982Z,0.75
2022-09-17T02:48:57.265Z,1.13
2022-09-17T02:51:40.843Z,0.90
2022-09-17T02:54:25.776Z,1.00
2022-09-17T02:57:08.957Z,0.98
2022-09-17T02:59:48.658Z,0.90
2022-09-17T03:02:26.990Z,0.93
2022-09-17T03:05:02.217Z,0.80
2022-09-17T03:07:36.842Z,0.75
2022-09-17T03:10:10.058Z,1.05
2022-09-17T03:12:43.323Z,0.63
2022-09-17T03:15:16.321Z,0.85
2022-09-17T03:17:53.270Z,1.02
2022-09-17T03:20:26.385Z,1.00
2022-09-17T03:23:00.671Z,0.90
2022-09-17T03:25:33.503Z,0.70
2022-09-17T03:28:06.309Z,0.73
2022-09-17T03:30:39.212Z,0.80
2022-09-17T03:33:12.211Z,0.80
2022-09-17T03:35:45.222Z,1.05
2022-09-17T03:38:19.473Z,0.80
2022-09-17T03:40:59.605Z,0.70
2022-09-17T03:43:32.433Z,0.90
2022-09-17T03:46:05.410Z,1.10
2022-09-17T03:48:40.058Z,0.80
2022-09-17T03:51:13.278Z,1.00
2022-09-17T03:53:47.752Z,0.90
2022-09-17T03:56:20.585Z,0.90
2022-09-17T03:58:53.719Z,0.77
2022-09-17T04:01:27.287Z,1.05
2022-09-17T04:04:00.658Z,1.20
2022-09-17T04:06:34.047Z,0.80
2022-09-17T04:09:08.967Z,0.98
2022-09-17T04:11:41.935Z,0.77
2022-09-17T04:14:14.738Z,0.68
2022-09-17T04:16:49.227Z,1.10
2022-09-17T04:19:22.622Z,1.10
2022-09-17T04:21:55.504Z,0.75
2022-09-17T04:24:30.353Z,0.80
2022-09-17T04:27:03.160Z,1.00
2022-09-17T04:29:36.556Z,0.80
2022-09-17T04:32:09.340Z,1.00
2022-09-17T04:34:42.189Z,0.93
2022-09-17T04:37:17.206Z,0.93
2022-09-17T04:39:51.848Z,1.10
2022-09-17T04:42:24.750Z,0.98
2022-09-17T04:44:58.102Z,1.10
2022-09-17T04:47:30.899Z,1.10
2022-09-17T04:50:05.441Z,1.60
2022-09-17T04:52:38.379Z,1.33
2022-09-17T04:55:13.189Z,1.10
2022-09-17T04:57:48.216Z,1.33
2022-09-17T05:00:22.138Z,1.15
2022-09-17T05:02:56.332Z,1.33
2022-09-17T05:05:29.539Z,1.27
2022-09-17T05:08:03.272Z,1.23
2022-09-17T05:10:37.823Z,0.98
2022-09-17T05:13:10.695Z,0.98
2022-09-17T05:15:43.646Z,1.40
2022-09-17T05:18:16.580Z,0.98
2022-09-17T05:20:49.532Z,0.90
2022-09-17T05:23:22.434Z,0.90
2022-09-17T05:26:01.212Z,1.00
2022-09-17T05:28:34.642Z,1.20
2022-09-17T05:31:07.510Z,1.10
2022-09-17T05:33:40.333Z,1.02
2022-09-17T05:36:13.235Z,1.05
2022-09-17T05:38:46.112Z,1.23
2022-09-17T05:41:20.429Z,0.95
2022-09-17T05:43:53.200Z,1.27
2022-09-17T05:46:26.095Z,1.00
2022-09-17T05:48:59.213Z,1.10
2022-09-17T05:51:32.885Z,0.90
2022-09-17T05:54:05.929Z,1.00
2022-09-17T05:56:40.215Z,1.50
2022-09-17T05:59:14.763Z,1.08
2022-09-17T06:01:47.917Z,1.08
2022-09-17T06:04:20.719Z,0.90
2022-09-17T06:06:53.557Z,1.02
2022-09-17T06:09:26.803Z,1.00
2022-09-17T06:12:01.293Z,1.10
2022-09-17T06:14:34.077Z,0.90
2022-09-17T06:17:07.077Z,0.98
2022-09-17T06:19:39.869Z,0.93
2022-09-17T06:22:12.674Z,1.00
2022-09-17T06:24:45.459Z,1.10
2022-09-17T06:27:19.803Z,1.05
2022-09-17T06:29:52.630Z,0.88
2022-09-17T06:32:25.484Z,1.55
2022-09-17T06:34:58.578Z,0.75
2022-09-17T06:37:32.603Z,1.30
2022-09-17T06:40:05.968Z,0.98
2022-09-17T06:42:40.201Z,0.93
2022-09-17T06:45:16.573Z,0.47
2022-09-17T06:47:49.799Z,0.82
2022-09-17T06:50:22.641Z,0.80
2022-09-17T06:52:56.157Z,0.77
2022-09-17T06:55:29.348Z,0.70
2022-09-17T06:58:03.779Z,1.00
2022-09-17T07:00:37.250Z,0.80
2022-09-17T07:03:10.743Z,0.88
2022-09-17T07:05:45.359Z,0.88
2022-09-17T07:08:18.231Z,0.80
2022-09-17T07:10:51.045Z,0.70
2022-09-17T07:13:25.598Z,0.63
2022-09-17T07:16:00.379Z,0.85
2022-09-17T07:18:33.924Z,0.77
2022-09-17T07:21:11.681Z,0.63
2022-09-17T07:23:45.865Z,0.60
2022-09-17T07:26:19.160Z,0.90
2022-09-17T07:28:53.456Z,0.70
2022-09-17T07:31:26.381Z,0.80
2022-09-17T07:33:59.836Z,0.68
2022-09-17T07:36:32.967Z,0.85
2022-09-17T07:39:06.199Z,0.60
2022-09-17T07:41:40.422Z,0.68
2022-09-17T07:44:14.948Z,0.60
2022-09-17T07:46:48.406Z,0.80
2022-09-17T07:49:21.296Z,0.50
2022-09-17T07:51:54.867Z,0.80
2022-09-17T07:54:27.698Z,0.60
2022-09-17T07:57:00.837Z,0.55
2022-09-17T07:59:35.426Z,0.52
2022-09-17T08:02:13.318Z,0.55
2022-09-17T08:04:46.303Z,0.80
2022-09-17T08:07:20.658Z,0.52
2022-09-17T08:09:53.499Z,0.90
2022-09-17T08:12:26.313Z,1.27
2022-09-17T08:15:00.576Z,0.50
2022-09-17T08:17:33.378Z,0.68
2022-09-17T08:20:07.820Z,0.32
2022-09-17T08:22:40.898Z,0.82
2022-09-17T08:25:13.713Z,0.55
2022-09-17T08:27:46.616Z,0.95
2022-09-17T08:30:20.930Z,0.50
2022-09-17T08:32:56.866Z,0.60
2022-09-17T08:35:29.824Z,0.63
2022-09-17T08:38:02.688Z,0.38
2022-09-17T08:40:44.197Z,0.50
2022-09-17T08:43:20.483Z,0.40
2022-09-17T08:45:56.632Z,0.50
2022-09-17T08:48:38.565Z,0.80
2022-09-17T08:51:25.912Z,0.52
2022-09-17T08:54:07.902Z,0.60
2022-09-17T08:56:43.547Z,0.45
2022-09-17T08:59:24.237Z,0.40
2022-09-17T09:02:04.255Z,0.50
2022-09-17T09:05:00.102Z,0.60
2022-09-17T09:07:39.046Z,0.38
2022-09-17T09:10:22.494Z,0.60
2022-09-17T09:12:57.629Z,0.60
2022-09-17T09:15:38.644Z,0.40
2022-09-17T09:18:20.213Z,0.40
2022-09-17T09:20:55.848Z,0.50
2022-09-17T09:23:36.255Z,0.50
2022-09-17T09:26:17.183Z,0.43
2022-09-17T09:29:05.837Z,0.63
2022-09-17T09:32:01.350Z,0.50
2022-09-17T09:34:37.440Z,0.40
2022-09-17T09:37:16.954Z,0.70
2022-09-17T09:39:51.776Z,0.52
2022-09-17T09:42:30.897Z,0.55
2022-09-17T09:45:15.410Z,0.50
2022-09-17T09:48:00.486Z,1.02
2022-09-17T09:51:05.762Z,0.43
2022-09-17T09:53:50.749Z,0.40
2022-09-17T09:56:39.909Z,0.40
2022-09-17T09:59:13.159Z,0.45
2022-09-17T10:01:46.412Z,0.40
2022-09-17T10:04:22.474Z,0.50
2022-09-17T10:07:03.872Z,0.40
2022-09-17T10:09:38.946Z,0.50
2022-09-17T10:12:18.118Z,0.60
2022-09-17T10:14:51.119Z,0.30
2022-09-17T10:17:25.550Z,0.40
2022-09-17T10:20:23.362Z,0.40
2022-09-17T10:22:57.777Z,0.60
2022-09-17T10:25:32.982Z,0.52
2022-09-17T10:28:23.983Z,0.50
2022-09-17T10:30:58.923Z,0.30
2022-09-17T10:33:32.999Z,0.40
2022-09-17T10:36:08.790Z,0.32
2022-09-17T10:38:46.264Z,0.38
2022-09-17T10:41:21.919Z,0.40
2022-09-17T10:43:54.745Z,0.75
2022-09-17T10:46:29.880Z,0.38
2022-09-17T10:49:11.823Z,0.70
2022-09-17T10:51:45.661Z,0.50
2022-09-17T10:54:41.869Z,0.65
2022-09-17T10:57:25.884Z,0.68
2022-09-17T11:00:07.238Z,0.47
2022-09-17T11:03:19.501Z,0.43
2022-09-17T11:06:14.659Z,0.52
2022-09-17T11:08:58.821Z,0.60
2022-09-17T11:11:42.370Z,0.40
2022-09-17T11:14:33.615Z,0.40
2022-09-17T11:17:18.551Z,0.50
2022-09-17T11:20:00.246Z,0.32
2022-09-17T11:25:34.833Z,0.40
2022-09-17T11:28:22.065Z,0.50
2022-09-17T11:31:10.773Z,0.40
2022-09-17T11:34:09.434Z,0.40
2022-09-17T11:36:50.186Z,0.70
2022-09-17T11:39:28.714Z,0.45
2022-09-17T11:42:07.822Z,0.40
2022-09-17T11:44:49.160Z,0.43
2022-09-17T11:47:26.463Z,0.40
2022-09-17T11:50:04.182Z,0.60
2022-09-17T11:52:42.016Z,0.50
2022-09-17T11:55:23.559Z,0.38
2022-09-17T11:58:03.043Z,0.20
2022-09-17T12:00:46.652Z,0.20
2022-09-17T12:03:29.780Z,0.40
2022-09-17T12:06:08.307Z,0.40
2022-09-17T12:08:45.515Z,0.35
2022-09-17T12:11:21.847Z,0.20
2022-09-17T12:13:58.886Z,0.32
2022-09-17T12:16:39.592Z,0.47
2022-09-17T12:19:18.585Z,0.35
2022-09-17T12:21:55.632Z,0.52
2022-09-17T12:24:30.727Z,0.40
2022-09-17T12:27:11.928Z,0.40
2022-09-17T12:30:04.330Z,0.30
2022-09-17T12:32:54.745Z,0.40
2022-09-17T12:39:03.054Z,0.47
2022-09-17T12:41:47.545Z,0.40
2022-09-17T12:44:36.897Z,0.50
2022-09-17T12:47:27.311Z,0.30
2022-09-17T12:50:20.413Z,0.68
2022-09-17T12:53:05.545Z,0.30
2022-09-17T12:55:52.206Z,0.30
2022-09-17T12:58:38.705Z,0.35
2022-09-17T13:01:19.373Z,0.40
2022-09-17T13:03:57.362Z,0.35
2022-09-17T13:07:05.386Z,0.40
2022-09-17T13:10:03.965Z,0.40
2022-09-17T13:12:40.898Z,0.30
2022-09-17T13:15:40.188Z,0.40
2022-09-17T13:18:26.692Z,0.38
2022-09-17T13:21:05.559Z,0.20
2022-09-17T13:23:43.561Z,0.20
2022-09-17T13:26:19.700Z,0.30
2022-09-17T13:28:53.705Z,0.10
2022-09-17T13:31:48.965Z,0.80
2022-09-17T13:34:31.103Z,0.30
2022-09-17T13:37:04.891Z,0.40
2022-09-17T13:39:41.972Z,0.70
2022-09-17T13:42:19.628Z,0.55
2022-09-17T13:45:03.141Z,0.47
2022-09-17T13:47:38.206Z,0.32
2022-09-17T13:50:13.677Z,0.63
2022-09-17T13:52:50.255Z,0.32
2022-09-17T13:55:40.662Z,0.38
2022-09-17T13:58:23.001Z,0.40
2022-09-17T14:00:58.683Z,0.50
2022-09-17T14:03:52.659Z,0.30
2022-09-17T14:06:51.501Z,0.30
2022-09-17T14:09:50.302Z,0.40
2022-09-17T14:13:21.478Z,0.47
2022-09-17T14:16:02.117Z,0.47
2022-09-17T14:18:46.338Z,0.40
2022-09-17T14:21:26.906Z,0.30
2022-09-17T14:24:02.606Z,0.40
2022-09-17T14:26:50.777Z,0.35
2022-09-17T14:29:41.069Z,0.35
2022-09-17T14:32:20.922Z,0.60
2022-09-17T14:34:53.851Z,0.60
2022-09-17T14:37:27.815Z,0.45
2022-09-17T14:40:00.896Z,0.30
2022-09-17T14:42:38.378Z,0.38
2022-09-17T14:45:18.708Z,0.30
2022-09-17T14:48:11.612Z,0.43
2022-09-17T14:50:44.495Z,0.40
2022-09-17T14:53:19.920Z,0.30
2022-09-17T14:55:53.031Z,0.22
2022-09-17T14:58:32.952Z,0.40
2022-09-17T15:01:07.567Z,0.30
2022-09-17T15:03:40.414Z,0.40
2022-09-17T15:06:21.879Z,0.20
2022-09-17T15:08:58.807Z,0.50
2022-09-17T15:11:32.683Z,0.43
2022-09-17T15:14:08.168Z,0.40
2022-09-17T15:16:49.318Z,0.30
2022-09-17T15:19:25.363Z,0.60
2022-09-17T15:21:59.830Z,0.38
2022-09-17T15:24:41.315Z,0.30
2022-09-17T15:27:21.611Z,0.43
2022-09-17T15:29:57.924Z,0.50
2022-09-17T15:32:32.391Z,0.50
2022-09-17T15:35:18.744Z,0.43
2022-09-17T15:38:21.127Z,0.43
2022-09-17T15:40:47.164Z,0.40
2022-09-17T15:43:32.001Z,0.40
2022-09-17T15:46:27.745Z,0.38
2022-09-17T15:49:04.304Z,0.40
2022-09-17T15:51:37.841Z,0.43
2022-09-17T15:54:37.852Z,0.30
2022-09-17T15:57:17.020Z,0.55
2022-09-17T15:59:50.439Z,0.70
2022-09-17T16:02:28.408Z,0.50
2022-09-17T16:05:46.855Z,0.50
2022-09-17T16:08:25.067Z,0.47
2022-09-17T16:10:57.947Z,0.50
2022-09-17T16:13:30.755Z,0.45
2022-09-17T16:16:04.079Z,0.50
2022-09-17T16:18:36.932Z,0.43
2022-09-17T16:21:12.224Z,0.80
2022-09-17T16:23:45.874Z,0.60
2022-09-17T16:26:23.682Z,0.60
2022-09-17T16:29:03.350Z,0.50
2022-09-17T16:31:36.168Z,0.80
2022-09-17T16:34:09.032Z,0.55
2022-09-17T16:36:43.515Z,0.40
2022-09-17T16:39:16.320Z,0.57
2022-09-17T16:41:49.214Z,0.60
2022-09-17T16:44:22.024Z,0.80
2022-09-17T16:46:55.216Z,0.90
2022-09-17T16:49:28.236Z,0.47
2022-09-17T16:52:02.784Z,0.57
2022-09-17T16:54:35.674Z,0.73
2022-09-17T16:57:08.454Z,0.80
2022-09-17T16:59:41.353Z,0.60
2022-09-17T17:02:14.413Z,0.75
2022-09-17T17:04:47.503Z,0.47
2022-09-17T17:07:24.460Z,1.08
2022-09-17T17:09:59.215Z,0.50
2022-09-17T17:12:32.372Z,0.68
2022-09-17T17:15:10.381Z,0.60
2022-09-17T17:17:43.232Z,0.57
2022-09-17T17:20:16.910Z,1.20
2022-09-17T17:22:52.025Z,1.10
2022-09-17T17:25:25.285Z,1.08
2022-09-17T17:27:58.078Z,0.70
2022-09-17T17:30:34.870Z,0.95
2022-09-17T17:33:08.203Z,0.70
2022-09-17T17:35:41.169Z,0.70
2022-09-17T17:38:15.373Z,0.90
2022-09-17T17:40:48.272Z,0.82
2022-09-17T17:43:21.335Z,0.88
2022-09-17T17:45:54.297Z,0.80
2022-09-17T17:48:27.242Z,0.70
2022-09-17T17:51:04.131Z,0.60
2022-09-17T17:53:42.069Z,0.60
2022-09-17T17:56:16.994Z,0.68
2022-09-17T17:58:54.776Z,0.75
2022-09-17T18:01:29.782Z,0.60
2022-09-17T18:04:05.300Z,0.82
2022-09-17T18:06:38.360Z,0.60
2022-09-17T18:09:12.503Z,0.70
2022-09-17T18:11:45.816Z,0.90
2022-09-17T18:14:18.763Z,0.90
2022-09-17T18:16:51.592Z,0.90
2022-09-17T18:19:24.709Z,0.55
2022-09-17T18:21:57.896Z,0.60
2022-09-17T18:24:32.308Z,0.80
2022-09-17T18:27:05.477Z,0.52
2022-09-17T18:29:39.365Z,0.60
2022-09-17T18:32:12.220Z,0.50
2022-09-17T18:34:45.281Z,0.60
2022-09-17T18:37:18.149Z,0.60
2022-09-17T18:39:59.854Z,0.68
2022-09-17T18:42:33.128Z,0.70
2022-09-17T18:45:07.436Z,0.70
2022-09-17T18:47:40.749Z,0.60
2022-09-17T18:50:14.399Z,0.70
2022-09-17T18:52:47.318Z,0.57
2022-09-17T18:55:21.603Z,0.70
2022-09-17T18:57:54.472Z,0.60
2022-09-17T19:00:27.334Z,0.65
2022-09-17T19:03:00.167Z,0.55
2022-09-17T19:05:33.253Z,0.70
2022-09-17T19:08:06.189Z,0.70
2022-09-17T19:10:40.653Z,1.30
2022-09-17T19:13:13.845Z,1.10
2022-09-17T19:15:46.903Z,0.65
2022-09-17T19:18:19.908Z,0.88
2022-09-17T19:20:52.739Z,0.60
2022-09-17T19:23:25.601Z,1.13
2022-09-17T19:26:06.419Z,1.00
2022-09-17T19:28:39.683Z,1.17
2022-09-17T19:31:15.039Z,0.70
2022-09-17T19:33:48.029Z,0.52
2022-09-17T19:36:21.838Z,0.95
2022-09-17T19:38:55.731Z,0.55
2022-09-17T19:41:32.817Z,0.63
2022-09-17T19:44:06.188Z,0.57
2022-09-17T19:46:39.382Z,0.80
2022-09-17T19:49:14.159Z,0.60
2022-09-17T19:51:47.530Z,0.77
2022-09-17T19:54:20.783Z,0.90
2022-09-17T19:56:55.473Z,1.10
2022-09-17T19:59:30.442Z,1.05
2022-09-17T20:02:03.561Z,1.20
2022-09-17T20:04:36.906Z,1.33
2022-09-17T20:07:10.143Z,1.02
2022-09-17T20:09:43.814Z,1.10
2022-09-17T20:12:18.350Z,1.02
2022-09-17T20:14:52.540Z,0.88
2022-09-17T20:17:28.974Z,1.17
2022-09-17T20:20:02.338Z,1.08
2022-09-17T20:22:35.582Z,1.48
2022-09-17T20:25:12.540Z,1.40
2022-09-17T20:27:51.244Z,1.27
2022-09-17T20:30:24.896Z,1.60
2022-09-17T20:32:58.077Z,1.40
2022-09-17T20:35:31.264Z,1.75
2022-09-17T20:39:09.366Z,0.80
2022-09-17T20:41:03.624Z,1.08
2022-09-17T20:43:40.299Z,1.00
2022-09-17T20:46:17.168Z,1.00
2022-09-17T20:48:53.463Z,0.82
2022-09-17T20:51:28.192Z,0.75
2022-09-17T20:54:06.865Z,1.23
2022-09-17T20:56:39.981Z,2.15
2022-09-17T20:59:21.134Z,1.33
2022-09-17T21:01:56.144Z,1.08
2022-09-17T21:04:29.693Z,0.85
2022-09-17T21:07:02.547Z,1.20
2022-09-17T21:09:43.266Z,0.60
2022-09-17T21:12:16.122Z,0.63
2022-09-17T21:14:50.402Z,0.82
2022-09-17T21:17:23.340Z,0.65
2022-09-17T21:19:56.290Z,0.70
2022-09-17T21:22:29.817Z,1.30
2022-09-17T21:25:02.689Z,0.85
2022-09-17T21:27:35.992Z,0.80
2022-09-17T21:30:11.929Z,0.90
2022-09-17T21:32:46.073Z,0.98
2022-09-17T21:35:18.892Z,1.00
2022-09-17T21:37:53.371Z,0.93
2022-09-17T21:40:26.338Z,0.88
2022-09-17T21:42:59.231Z,0.80
2022-09-17T21:45:33.627Z,0.80
2022-09-17T21:48:06.496Z,0.77
2022-09-17T21:50:39.719Z,0.70
2022-09-17T21:53:12.599Z,0.73
2022-09-17T21:55:45.482Z,0.63
2022-09-17T21:58:18.470Z,0.60
2022-09-17T22:00:52.863Z,0.60
2022-09-17T22:03:25.741Z,0.90
2022-09-17T22:06:03.794Z,1.08
2022-09-17T22:08:36.716Z,1.13
2022-09-17T22:11:12.456Z,1.00
2022-09-17T22:13:53.428Z,1.00
2022-09-17T22:16:30.823Z,0.53
2022-09-17T22:19:05.659Z,0.88
2022-09-17T22:21:40.975Z,0.60
2022-09-17T22:24:16.084Z,0.52
2022-09-17T22:26:56.874Z,0.77
2022-09-17T22:29:32.145Z,0.82
2022-09-17T22:32:06.905Z,0.77
2022-09-17T22:34:39.782Z,0.95
2022-09-17T22:37:13.117Z,0.70
2022-09-17T22:39:47.084Z,0.80
2022-09-17T22:42:19.933Z,0.60
2022-09-17T22:44:52.931Z,0.50
2022-09-17T22:47:27.129Z,0.68
2022-09-17T22:50:00.021Z,0.68
2022-09-17T22:52:33.030Z,0.60
2022-09-17T22:55:06.564Z,0.60
2022-09-17T22:57:39.334Z,0.70
2022-09-17T23:00:13.186Z,0.85
2022-09-17T23:02:47.626Z,0.88
2022-09-17T23:05:20.657Z,0.63
2022-09-17T23:07:54.254Z,0.85
2022-09-17T23:10:27.162Z,0.90
2022-09-17T23:13:00.001Z,0.50
2022-09-17T23:15:33.443Z,0.80
2022-09-17T23:18:08.438Z,0.70
2022-09-17T23:20:41.294Z,0.45
2022-09-17T23:23:14.116Z,0.65
2022-09-17T23:25:46.967Z,0.75
2022-09-17T23:28:21.301Z,0.57
2022-09-17T23:30:54.207Z,0.70
2022-09-17T23:33:28.446Z,0.60
2022-09-17T23:36:05.064Z,0.47
2022-09-17T23:38:37.842Z,0.52
2022-09-17T23:41:12.801Z,0.50
2022-09-17T23:43:47.766Z,0.57
2022-09-17T23:46:21.991Z,0.77
2022-09-17T23:48:56.256Z,0.80
2022-09-17T23:51:31.890Z,0.50
2022-09-17T23:54:09.403Z,0.57
2022-09-17T23:56:42.330Z,0.40
2022-09-17T23:59:15.276Z,0.95
